Time;durP1;ratioP1;P1;durP2;ratioP2;P2;SDS_P1;SDS_P2;PMS_P1;PMS_P2;Temp;Humidity;BMP_temperature;BMP_pressure;BME280_temperature;BME280_humidity;BME280_pressure;Samples;Min_cycle;Max_cycle;Signal;HPM_P1;HPM_P2
2022/07/15 13:03:51;;;;;;;6.97;4.30;;;;;;;36.17;31.02;100423.44;5109470;27;20419;-81
2022/07/15 13:06:20;;;;;;;4.80;4.13;;;;;;;36.39;30.81;100419.78;5092564;28;20048;-81
2022/07/15 13:08:48;;;;;;;4.07;3.53;;;;;;;36.52;30.16;100430.31;5084160;28;20060;-82
2022/07/15 13:11:20;;;;;;;7.03;3.58;;;;;;;36.69;30.48;100416.66;5088783;28;20079;-81
2022/07/15 13:13:48;;;;;;;3.53;3.22;;;;;;;36.82;30.03;100430.81;5088541;28;20055;-80
2022/07/15 13:16:16;;;;;;;4.55;3.80;;;;;;;37.14;29.99;100428.75;5087845;28;20051;-81
2022/07/15 13:18:45;;;;;;;3.60;3.35;;;;;;;37.06;30.02;100424.56;5088293;28;20483;-81
2022/07/15 13:21:13;;;;;;;4.78;4.05;;;;;;;37.27;29.82;100431.47;5087844;28;20043;-81
2022/07/15 13:23:49;;;;;;;4.68;3.72;;;;;;;37.28;29.50;100418.03;5088163;28;20052;-81
2022/07/15 13:26:17;;;;;;;4.25;3.85;;;;;;;37.41;29.78;100421.53;5088104;28;20048;-81
2022/07/15 13:28:45;;;;;;;3.90;3.60;;;;;;;37.62;29.06;100410.50;5100132;28;20040;-81
2022/07/15 13:31:14;;;;;;;4.32;3.60;;;;;;;37.75;29.45;100416.84;5087614;28;20498;-81
2022/07/15 13:33:42;;;;;;;3.83;3.53;;;;;;;37.63;29.52;100421.41;5098300;28;20413;-81
2022/07/15 13:36:22;;;;;;;3.95;3.65;;;;;;;37.58;29.54;100418.38;5079060;28;20048;-81
2022/07/15 13:38:50;;;;;;;6.03;3.38;;;;;;;37.80;28.88;100400.34;5096551;28;20047;-81
2022/07/15 13:41:18;;;;;;;3.90;3.60;;;;;;;38.05;29.06;100410.63;5085734;28;20503;-81
2022/07/15 13:43:46;;;;;;;4.40;3.67;;;;;;;38.11;28.63;100403.03;5087429;28;20044;-81
2022/07/15 13:46:14;;;;;;;3.70;3.40;;;;;;;37.89;28.80;100388.91;5085049;28;20040;-81
2022/07/15 13:48:44;;;;;;;6.60;3.60;;;;;;;37.96;29.12;100397.16;5087658;28;20051;-80
2022/07/15 13:51:24;;;;;;;4.50;3.53;;;;;;;37.96;28.62;100402.09;5079850;28;20052;-80
2022/07/15 13:53:56;;;;;;;5.07;3.88;;;;;;;38.00;28.32;100400.66;5087687;28;20040;-80
2022/07/15 13:56:25;;;;;;;4.20;3.80;;;;;;;38.11;28.92;100402.25;5085882;28;20052;-79
2022/07/15 13:58:58;;;;;;;5.53;3.50;;;;;;;38.05;29.04;100405.72;5075091;28;20047;-79
2022/07/15 14:01:27;;;;;;;5.70;3.63;;;;;;;38.00;29.08;100394.13;5085010;28;20052;-80
2022/07/15 14:03:55;;;;;;;3.65;3.35;;;;;;;37.85;29.29;100399.69;5087408;28;20411;-79
2022/07/15 14:06:25;;;;;;;3.80;3.53;;;;;;;37.89;29.25;100389.72;5087121;28;20044;-79
2022/07/15 14:08:55;;;;;;;5.35;3.97;;;;;;;38.03;28.95;100396.81;5089611;28;20056;-82
2022/07/15 14:11:23;;;;;;;6.07;3.65;;;;;;;38.17;28.34;100397.50;5097604;28;20039;-82
2022/07/15 14:13:51;;;;;;;5.45;3.90;;;;;;;37.79;28.74;100399.56;5081815;28;20032;-81
2022/07/15 14:16:19;;;;;;;3.88;3.38;;;;;;;37.77;28.72;100399.25;5071499;28;20048;-82
2022/07/15 14:18:48;;;;;;;4.00;3.60;;;;;;;37.87;28.68;100406.53;5073347;28;20052;-81
2022/07/15 14:21:18;;;;;;;4.72;3.45;;;;;;;37.66;28.89;100399.69;5077931;28;20044;-81
2022/07/15 14:23:46;;;;;;;4.18;3.50;;;;;;;37.83;28.64;100403.06;5072570;28;20049;-81
2022/07/15 14:26:14;;;;;;;3.58;3.28;;;;;;;37.87;28.83;100402.88;5073423;28;20521;-80
2022/07/15 14:28:43;;;;;;;3.92;3.63;;;;;;;38.02;28.26;100412.38;5073524;28;20399;-81
2022/07/15 14:31:12;;;;;;;4.05;3.50;;;;;;;38.24;27.80;100402.06;5056015;28;20491;-81
2022/07/15 14:33:41;;;;;;;4.22;3.58;;;;;;;38.08;28.10;100401.16;5073573;28;20052;-83
2022/07/15 14:36:11;;;;;;;3.70;3.40;;;;;;;38.41;27.27;100406.16;5065309;28;20051;-81
2022/07/15 14:38:39;;;;;;;4.32;3.33;;;;;;;38.56;27.29;100396.94;5067488;28;20041;-82
2022/07/15 14:41:11;;;;;;;4.90;3.88;;;;;;;38.53;27.31;100384.41;5065530;28;20044;-82
2022/07/15 14:43:39;;;;;;;5.30;3.47;;;;;;;38.43;27.66;100379.97;5065547;28;20047;-82
2022/07/15 14:46:07;;;;;;;3.63;3.20;;;;;;;38.72;27.95;100390.06;5064160;28;20044;-82
2022/07/15 14:48:36;;;;;;;3.35;3.15;;;;;;;38.54;27.48;100380.28;5059186;28;20041;-81
2022/07/15 14:51:04;;;;;;;3.65;3.35;;;;;;;38.56;27.27;100380.56;5058132;28;20048;-82
2022/07/15 14:53:32;;;;;;;5.07;3.35;;;;;;;38.54;27.64;100379.47;5062524;28;20047;-88
2022/07/15 14:56:00;;;;;;;3.67;3.38;;;;;;;38.40;28.25;100372.38;5060643;28;20041;-81
2022/07/15 14:58:29;;;;;;;6.75;3.25;;;;;;;38.39;28.33;100367.91;5057533;28;20557;-81
2022/07/15 15:00:57;;;;;;;5.72;3.63;;;;;;;38.25;27.98;100364.47;5059165;28;20044;-81
2022/07/15 15:03:30;;;;;;;3.65;3.38;;;;;;;38.10;27.89;100361.47;5056341;28;20049;-82
2022/07/15 15:05:58;;;;;;;4.13;3.55;;;;;;;38.14;28.24;100364.16;5062310;28;20044;-81
2022/07/15 15:08:26;;;;;;;3.75;3.38;;;;;;;38.22;28.35;100348.28;5067884;28;20048;-81
2022/07/15 15:10:57;;;;;;;5.93;3.65;;;;;;;38.51;27.76;100355.47;5070500;28;20510;-81
2022/07/15 15:13:26;;;;;;;5.18;3.38;;;;;;;38.39;26.93;100347.91;5067736;28;20037;-81
2022/07/15 15:15:57;;;;;;;3.40;3.15;;;;;;;38.26;26.70;100339.53;5066549;28;20048;-82
2022/07/15 15:18:26;;;;;;;3.53;3.22;;;;;;;37.56;27.03;100333.25;5066187;28;20044;-81
2022/07/15 15:20:59;;;;;;;3.85;3.45;;;;;;;37.38;28.14;100339.75;5067761;28;20041;-81
2022/07/15 15:23:31;;;;;;;3.80;3.38;;;;;;;37.58;27.91;100336.44;5064415;28;20049;-81
2022/07/15 15:28:49;;;;;;;3.95;3.20;;;;;;;37.57;28.07;100331.97;5066873;28;20060;-80
2022/07/15 15:31:28;;;;;;;3.28;3.08;;;;;;;37.44;28.23;100337.84;5069062;28;20041;-81
2022/07/15 15:33:58;;;;;;;4.20;3.80;;;;;;;37.53;27.21;100347.66;5050888;28;20068;-81
2022/07/15 15:36:43;;;;;;;3.40;3.10;;;;;;;36.94;28.26;100341.53;5064277;28;20480;-81
2022/07/15 15:39:13;;;;;;;3.55;3.25;;;;;;;36.98;27.04;100336.47;5064484;28;20059;-85
2022/07/15 15:41:42;;;;;;;3.70;3.40;;;;;;;36.79;27.42;100334.84;5063660;28;20510;-86
2022/07/15 15:44:14;;;;;;;3.13;2.92;;;;;;;36.83;27.34;100333.44;5062268;28;20044;-82
2022/07/15 15:46:43;;;;;;;7.25;3.35;;;;;;;36.76;26.57;100330.88;5066064;28;20045;-91
2022/07/15 15:49:12;;;;;;;3.78;3.15;;;;;;;36.52;26.38;100327.75;5079514;28;20052;-85
2022/07/15 15:51:44;;;;;;;2.92;2.70;;;;;;;36.30;25.78;100337.13;5079179;28;20055;-86
2022/07/15 15:54:14;;;;;;;4.15;2.90;;;;;;;35.97;26.25;100326.94;5080216;28;20056;-85
2022/07/15 15:56:49;;;;;;;4.75;3.17;;;;;;;36.17;26.91;100331.53;5062807;28;20044;-84
2022/07/15 15:59:18;;;;;;;3.25;2.92;;;;;;;36.05;27.71;100322.56;5071044;28;20051;-84
2022/07/15 16:01:46;;;;;;;3.05;2.85;;;;;;;36.01;27.53;100332.50;5070300;28;20041;-88
2022/07/15 16:04:15;;;;;;;3.55;3.25;;;;;;;36.02;27.35;100332.03;5075327;28;20522;-83
2022/07/15 16:06:43;;;;;;;2.78;2.58;;;;;;;35.96;26.63;100331.03;5057158;28;20040;-84
2022/07/15 16:09:11;;;;;;;3.17;2.90;;;;;;;35.87;27.31;100328.94;5058527;28;20052;-90
2022/07/15 16:11:39;;;;;;;3.45;3.15;;;;;;;35.67;27.89;100328.47;5066455;28;20124;-84
2022/07/15 16:14:07;;;;;;;3.35;3.15;;;;;;;35.60;27.50;100330.31;5055797;28;20052;-86
2022/07/15 16:16:35;;;;;;;3.75;3.45;;;;;;;35.50;28.49;100322.94;5054100;28;20399;-86
2022/07/15 16:19:05;;;;;;;3.80;3.50;;;;;;;35.42;28.25;100328.06;5069973;28;20491;-85
2022/07/15 16:24:19;;;;;;;4.40;3.10;;;;;;;35.42;27.83;100327.28;5071840;28;20505;-85
2022/07/15 16:27:04;;;;;;;5.10;3.00;;;;;;;35.22;27.99;100322.66;5060181;28;20549;-85
2022/07/15 16:29:36;;;;;;;4.90;3.15;;;;;;;35.33;28.10;100320.25;5058219;28;20041;-87
2022/07/15 16:32:05;;;;;;;8.70;3.53;;;;;;;35.27;28.59;100322.09;5065112;28;20048;-84
2022/07/15 16:34:33;;;;;;;3.75;3.38;;;;;;;35.26;29.89;100326.19;5074076;28;20059;-85
2022/07/15 16:37:01;;;;;;;3.30;3.00;;;;;;;35.06;30.95;100320.75;5083077;28;20475;-83
2022/07/15 16:39:29;;;;;;;3.42;3.10;;;;;;;35.05;31.20;100314.28;5088351;28;20032;-81
2022/07/15 16:41:57;;;;;;;5.53;3.15;;;;;;;35.11;30.74;100317.34;5087944;28;20051;-81
2022/07/15 16:44:25;;;;;;;3.60;3.30;;;;;;;34.84;31.44;100310.13;5091643;28;20060;-81
2022/07/15 16:46:53;;;;;;;5.93;3.42;;;;;;;34.93;31.79;100312.22;5091674;28;20403;-81
2022/07/15 16:49:21;;;;;;;3.78;3.47;;;;;;;34.76;32.21;100323.75;5090565;28;20040;-82
2022/07/15 16:51:50;;;;;;;4.25;3.85;;;;;;;34.70;32.61;100308.53;5090922;28;20397;-82
2022/07/15 16:54:18;;;;;;;3.70;3.38;;;;;;;34.71;32.27;100310.13;5090002;28;20040;-82
2022/07/15 16:56:53;;;;;;;4.35;3.95;;;;;;;34.88;32.23;100315.66;5091834;28;20051;-82
2022/07/15 16:59:22;;;;;;;4.32;3.58;;;;;;;34.83;31.76;100315.00;5090981;28;20051;-80
2022/07/15 17:01:52;;;;;;;4.20;3.90;;;;;;;34.74;31.85;100312.03;5074288;28;20368;-82
2022/07/15 17:04:21;;;;;;;3.95;3.58;;;;;;;34.66;31.81;100316.38;5071468;28;20048;-82
2022/07/15 17:06:49;;;;;;;4.15;3.45;;;;;;;34.52;31.53;100309.88;5070087;28;20040;-82
2022/07/15 17:09:17;;;;;;;4.10;3.58;;;;;;;34.47;31.98;100301.91;5085682;28;20044;-81
2022/07/15 17:11:45;;;;;;;3.30;3.05;;;;;;;34.54;31.79;100310.19;5064085;28;20060;-82
2022/07/15 17:14:13;;;;;;;4.20;3.72;;;;;;;34.51;31.79;100313.16;5058459;28;20037;-82
2022/07/15 17:16:41;;;;;;;6.15;3.38;;;;;;;34.41;31.78;100310.19;5059721;28;20044;-82
2022/07/15 17:19:09;;;;;;;4.07;3.35;;;;;;;34.49;31.96;100318.50;5064078;28;20040;-81
2022/07/15 17:21:38;;;;;;;9.60;3.90;;;;;;;34.42;31.84;100316.66;5056668;28;20053;-81
2022/07/15 17:24:06;;;;;;;6.00;3.80;;;;;;;34.43;32.07;100323.94;5064626;28;20372;-84
2022/07/15 17:26:35;;;;;;;4.57;3.67;;;;;;;34.40;32.19;100311.44;5062217;28;20041;-85
2022/07/15 17:29:06;;;;;;;8.85;3.95;;;;;;;34.37;33.46;100329.41;5054458;28;20155;-83
2022/07/15 17:31:34;;;;;;;3.92;3.53;;;;;;;34.20;34.95;100313.69;5055172;28;20045;-84
2022/07/15 17:34:03;;;;;;;3.67;2.63;;;;;;;33.70;36.72;100320.34;5057081;28;20515;-85
2022/07/15 17:36:32;;;;;;;4.57;2.83;;;;;;;33.65;37.32;100332.22;5067371;28;20395;-85
2022/07/15 17:39:00;;;;;;;2.80;2.60;;;;;;;33.64;37.81;100324.97;5070057;28;20041;-85
2022/07/15 17:41:29;;;;;;;2.85;2.65;;;;;;;33.44;38.57;100328.72;5067065;28;20040;-85
2022/07/15 17:44:02;;;;;;;7.65;2.50;;;;;;;33.45;38.42;100352.19;5057889;28;20047;-83
2022/07/15 17:46:33;;;;;;;3.03;2.70;;;;;;;33.32;38.61;100340.78;5057783;28;20044;-86
2022/07/15 17:49:01;;;;;;;5.38;2.45;;;;;;;33.19;38.90;100323.69;5063604;28;20048;-86
2022/07/15 17:51:30;;;;;;;4.07;2.67;;;;;;;33.03;38.97;100339.47;5064727;28;20075;-88
2022/07/15 17:53:58;;;;;;;2.67;2.47;;;;;;;32.96;39.40;100345.31;5092288;28;20051;-86
2022/07/15 17:56:27;;;;;;;2.30;2.20;;;;;;;33.08;38.97;100338.94;5092868;28;20050;-86
2022/07/15 17:58:55;;;;;;;2.88;2.53;;;;;;;33.16;38.75;100345.22;5094170;28;20402;-86
2022/07/15 18:01:24;;;;;;;2.80;2.20;;;;;;;33.03;39.05;100355.69;5093347;28;20040;-85
2022/07/15 18:03:53;;;;;;;2.28;2.13;;;;;;;32.79;39.73;100358.63;5092354;28;20048;-86
2022/07/15 18:06:21;;;;;;;2.65;2.33;;;;;;;32.84;39.53;100355.28;5094710;28;20391;-85
2022/07/15 18:08:49;;;;;;;3.35;2.83;;;;;;;32.77;38.71;100358.25;5094164;28;20055;-85
2022/07/15 18:11:17;;;;;;;5.38;2.20;;;;;;;32.79;37.75;100364.31;5095085;28;20446;-85
2022/07/15 18:13:45;;;;;;;2.20;2.00;;;;;;;32.64;37.52;100358.19;5094597;28;20488;-86
2022/07/15 18:16:14;;;;;;;2.92;2.30;;;;;;;32.61;37.96;100359.84;5093713;28;20044;-85
2022/07/15 18:18:43;;;;;;;2.67;2.47;;;;;;;32.60;37.21;100360.28;5094153;28;20037;-86
2022/07/15 18:21:11;;;;;;;3.47;2.53;;;;;;;32.43;37.68;100378.03;5094559;28;20048;-86
2022/07/15 18:23:39;;;;;;;2.78;2.30;;;;;;;32.33;37.54;100362.03;5094495;28;20050;-86
2022/07/15 18:26:07;;;;;;;2.85;2.28;;;;;;;32.29;37.90;100362.13;5090686;28;20040;-85
2022/07/15 18:28:35;;;;;;;2.22;2.00;;;;;;;32.21;37.90;100371.19;5087965;28;20052;-86
2022/07/15 18:31:03;;;;;;;2.65;2.45;;;;;;;32.03;38.15;100375.19;5094344;28;20045;-87
2022/07/15 18:33:31;;;;;;;2.30;2.10;;;;;;;31.96;38.13;100373.28;5093150;28;20048;-86
2022/07/15 18:35:59;;;;;;;2.95;2.65;;;;;;;31.90;38.47;100366.53;5093117;28;20040;-85
2022/07/15 18:38:28;;;;;;;2.05;1.92;;;;;;;31.86;38.00;100377.13;5087778;28;20047;-86
2022/07/15 18:41:05;;;;;;;6.53;2.50;;;;;;;31.74;38.58;100364.38;5094164;28;20043;-87
2022/07/15 18:43:35;;;;;;;2.83;2.38;;;;;;;31.83;38.17;100367.47;5093028;28;20044;-86
2022/07/15 18:46:07;;;;;;;2.42;2.13;;;;;;;31.74;38.58;100376.50;5093497;28;20489;-85
2022/07/15 18:48:36;;;;;;;3.33;2.15;;;;;;;31.61;38.56;100381.97;5092252;28;20407;-87
2022/07/15 18:51:04;;;;;;;2.65;2.42;;;;;;;31.64;38.87;100383.16;5094072;28;20036;-87
2022/07/15 18:53:33;;;;;;;2.20;2.10;;;;;;;31.46;38.83;100378.63;5092783;28;20036;-86
2022/07/15 18:56:02;;;;;;;2.80;2.20;;;;;;;31.37;38.62;100376.34;5094061;28;20051;-85
2022/07/15 18:58:30;;;;;;;1.83;1.73;;;;;;;31.37;38.56;100379.16;5092712;28;20036;-86
2022/07/15 19:00:59;;;;;;;2.25;2.05;;;;;;;31.37;38.84;100400.97;5093944;28;20410;-86
2022/07/15 19:03:27;;;;;;;2.85;2.25;;;;;;;31.17;39.06;100398.06;5093626;28;20043;-86
2022/07/15 19:05:58;;;;;;;2.33;2.10;;;;;;;31.28;38.88;100407.16;5093736;28;20048;-86
2022/07/15 19:08:26;;;;;;;5.10;2.10;;;;;;;31.26;39.00;100398.31;5091294;28;20044;-86
2022/07/15 19:10:54;;;;;;;3.38;2.10;;;;;;;31.17;38.93;100404.50;5093766;28;20044;-87
2022/07/15 19:13:22;;;;;;;2.03;1.92;;;;;;;30.89;39.02;100400.09;5093701;28;20051;-86
2022/07/15 19:15:51;;;;;;;2.22;2.03;;;;;;;30.98;39.63;100414.47;5093523;28;20513;-87
2022/07/15 19:18:19;;;;;;;2.75;2.00;;;;;;;31.05;38.74;100411.56;5092470;28;20044;-86
2022/07/15 19:20:47;;;;;;;3.10;1.92;;;;;;;31.09;38.70;100420.75;5078959;28;20501;-87
2022/07/15 19:23:24;;;;;;;1.85;1.75;;;;;;;31.08;38.62;100424.03;5092022;28;20062;-87
2022/07/15 19:25:55;;;;;;;2.28;2.15;;;;;;;31.02;38.76;100431.38;5092463;28;20075;-87
2022/07/15 19:28:23;;;;;;;1.98;1.88;;;;;;;31.02;38.96;100432.16;5083634;28;20071;-86
2022/07/15 19:30:52;;;;;;;2.55;2.30;;;;;;;30.88;38.67;100433.16;5092336;28;20040;-86
2022/07/15 19:33:20;;;;;;;3.67;2.08;;;;;;;30.91;38.91;100437.97;5093236;28;20055;-87
2022/07/15 19:35:48;;;;;;;2.22;1.98;;;;;;;30.82;38.86;100446.16;5092789;28;20040;-86
2022/07/15 19:38:17;;;;;;;5.68;2.30;;;;;;;30.90;39.00;100461.81;5073653;28;20048;-86
2022/07/15 19:40:45;;;;;;;2.30;2.05;;;;;;;30.78;39.21;100463.16;5067980;28;20037;-85
2022/07/15 19:43:13;;;;;;;4.20;2.10;;;;;;;30.82;38.74;100455.44;5066408;28;20059;-85
2022/07/15 19:45:43;;;;;;;2.40;1.90;;;;;;;30.79;38.99;100453.47;5066745;28;20052;-86
2022/07/15 19:48:12;;;;;;;3.10;2.20;;;;;;;30.78;39.17;100466.00;5080021;28;20048;-85
2022/07/15 19:50:40;;;;;;;2.05;1.90;;;;;;;30.84;39.71;100460.69;5065615;28;20506;-86
2022/07/15 19:53:09;;;;;;;4.05;2.22;;;;;;;30.67;38.88;100473.75;5068230;28;20052;-86
2022/07/15 19:55:41;;;;;;;2.42;2.22;;;;;;;30.69;39.56;100477.00;5071015;28;20052;-86
2022/07/15 19:58:13;;;;;;;2.08;1.98;;;;;;;30.70;39.34;100472.97;5075939;28;20045;-87
2022/07/15 20:00:45;;;;;;;2.17;1.98;;;;;;;30.57;39.03;100465.03;5075045;28;20048;-83
2022/07/15 20:03:22;;;;;;;2.53;2.10;;;;;;;30.63;38.90;100492.78;5070332;28;20040;-86
2022/07/15 20:05:51;;;;;;;3.83;2.08;;;;;;;30.58;38.99;100491.22;5070370;28;20048;-86
2022/07/15 20:08:19;;;;;;;4.10;2.25;;;;;;;30.56;38.53;100488.81;5072967;28;20052;-84
2022/07/15 20:10:47;;;;;;;2.05;1.85;;;;;;;30.66;38.46;100501.22;5073867;28;20044;-85
2022/07/15 20:13:16;;;;;;;2.42;2.03;;;;;;;30.57;38.55;100501.72;5071563;28;20059;-85
2022/07/15 20:15:44;;;;;;;2.38;2.17;;;;;;;30.50;38.62;100487.66;5065007;28;20570;-85
2022/07/15 20:18:12;;;;;;;2.40;2.30;;;;;;;30.56;37.96;100500.09;5060706;28;20044;-86
2022/07/15 20:20:40;;;;;;;2.10;2.00;;;;;;;30.63;38.13;100496.41;5069136;28;20036;-85
2022/07/15 20:23:08;;;;;;;2.05;1.77;;;;;;;30.55;37.05;100501.31;5079902;28;20048;-85
2022/07/15 20:25:36;;;;;;;1.85;1.75;;;;;;;30.50;36.98;100506.66;5078225;28;20056;-85
2022/07/15 20:28:05;;;;;;;4.97;1.88;;;;;;;30.46;37.37;100514.34;5088189;28;20044;-85
2022/07/15 20:30:33;;;;;;;2.42;1.95;;;;;;;30.38;37.13;100522.09;5070718;28;20048;-85
2022/07/15 20:33:02;;;;;;;2.28;2.08;;;;;;;30.28;37.31;100521.78;5084790;28;20052;-83
2022/07/15 20:35:31;;;;;;;1.80;1.70;;;;;;;30.26;37.97;100510.09;5075573;28;20051;-83
2022/07/15 20:38:02;;;;;;;3.15;1.77;;;;;;;30.36;37.37;100502.78;5075742;28;20051;-83
2022/07/15 20:40:31;;;;;;;2.15;1.95;;;;;;;30.42;36.83;100503.09;5075064;28;20044;-84
2022/07/15 20:42:59;;;;;;;2.78;2.20;;;;;;;30.31;37.37;100504.00;5069105;28;20484;-84
2022/07/15 20:45:29;;;;;;;2.22;2.00;;;;;;;30.21;37.64;100504.94;5072407;28;20040;-85
2022/07/15 20:47:57;;;;;;;2.20;2.00;;;;;;;30.16;37.97;100509.00;5076795;28;20040;-82
2022/07/15 20:52:39;;;;;;;2.35;2.15;;;;;;;30.00;38.10;100500.28;5104099;27;20436;-72
2022/07/15 20:55:09;;;;;;;3.60;2.00;;;;;;;29.91;38.92;100509.22;5078026;28;20040;-74
2022/07/15 20:57:37;;;;;;;3.63;2.20;;;;;;;29.89;39.71;100506.00;5086576;28;20047;-77
2022/07/15 21:00:07;;;;;;;2.20;2.00;;;;;;;29.74;39.51;100505.31;5087945;28;20052;-74
2022/07/15 21:02:36;;;;;;;1.83;1.73;;;;;;;29.72;39.87;100510.56;5055891;28;20049;-75
2022/07/15 21:05:07;;;;;;;2.20;2.00;;;;;;;29.74;40.17;100511.75;5061397;28;20048;-76
2022/07/15 21:07:35;;;;;;;2.28;1.88;;;;;;;29.68;40.26;100510.59;5061402;28;20056;-71
2022/07/15 21:10:04;;;;;;;4.57;2.30;;;;;;;29.55;40.32;100504.66;5070207;28;20048;-68
2022/07/15 21:12:32;;;;;;;2.60;2.00;;;;;;;29.50;40.86;100520.00;5086008;28;20067;-71
2022/07/15 21:15:05;;;;;;;2.50;2.20;;;;;;;29.59;41.28;100527.16;5067319;28;20407;-71
2022/07/15 21:17:34;;;;;;;3.30;2.10;;;;;;;29.55;41.22;100526.38;5087457;28;20044;-73
2022/07/15 21:20:04;;;;;;;2.50;1.92;;;;;;;29.52;41.34;100533.69;5053531;28;20574;-74
2022/07/15 21:22:33;;;;;;;4.43;2.50;;;;;;;29.57;41.26;100526.78;5062762;28;20056;-74
2022/07/15 21:27:51;;;;;;;2.22;2.03;;;;;;;29.56;40.92;100542.91;5068192;28;20063;-74
2022/07/15 21:30:19;;;;;;;3.10;2.10;;;;;;;29.50;40.96;100548.19;5053277;28;20044;-74
2022/07/15 21:32:47;;;;;;;3.95;2.20;;;;;;;29.46;41.46;100544.53;5069200;28;20093;-74
2022/07/15 21:35:15;;;;;;;2.33;2.13;;;;;;;29.47;41.27;100551.78;5053092;28;20064;-74
2022/07/15 21:37:44;;;;;;;2.33;2.13;;;;;;;29.45;41.21;100557.03;5064875;28;20055;-74
2022/07/15 21:40:12;;;;;;;1.95;1.85;;;;;;;29.45;41.47;100550.59;5078654;28;20110;-74
2022/07/15 21:42:40;;;;;;;2.30;2.05;;;;;;;29.41;41.03;100553.44;5068884;28;20044;-75
2022/07/15 21:45:09;;;;;;;2.13;2.00;;;;;;;29.42;42.46;100545.78;5069841;28;20044;-74
2022/07/15 21:47:43;;;;;;;2.78;2.00;;;;;;;29.40;41.01;100543.38;5063747;28;20048;-75
2022/07/15 21:50:13;;;;;;;1.98;1.83;;;;;;;29.41;41.18;100547.78;5058737;28;20048;-72
2022/07/15 21:52:41;;;;;;;2.10;2.00;;;;;;;29.41;41.34;100553.44;5041710;28;20052;-74
2022/07/15 21:55:10;;;;;;;5.75;2.33;;;;;;;29.44;41.05;100544.16;5049044;28;20052;-75
2022/07/15 21:57:39;;;;;;;4.22;2.35;;;;;;;29.41;41.26;100544.19;5043353;28;20057;-74
2022/07/15 22:00:13;;;;;;;2.65;2.45;;;;;;;29.44;41.26;100549.81;5046000;28;20407;-74
2022/07/15 22:03:11;;;;;;;4.53;1.90;;;;;;;29.45;40.76;100551.41;5045172;28;20053;-75
2022/07/15 22:05:40;;;;;;;2.33;2.10;;;;;;;29.41;41.26;100556.25;5053482;28;20041;-74
2022/07/15 22:08:10;;;;;;;3.20;2.40;;;;;;;29.41;41.10;100553.44;5048403;28;20052;-74
2022/07/15 22:10:39;;;;;;;3.67;2.42;;;;;;;29.32;41.63;100564.38;5052554;28;20056;-73
2022/07/15 22:13:08;;;;;;;2.40;2.20;;;;;;;29.23;42.12;100562.78;5034983;28;20040;-73
2022/07/15 22:15:40;;;;;;;2.67;2.33;;;;;;;29.28;41.48;100557.94;5034868;28;20044;-74
2022/07/15 22:18:12;;;;;;;3.30;2.08;;;;;;;29.31;41.55;100574.00;5051005;28;20072;-74
2022/07/15 22:20:42;;;;;;;2.35;2.20;;;;;;;29.25;41.40;100582.09;5052346;28;20122;-72
2022/07/15 22:23:13;;;;;;;3.35;2.22;;;;;;;29.20;41.33;100562.81;5037888;28;20052;-72
2022/07/15 22:25:45;;;;;;;2.25;2.08;;;;;;;29.24;41.30;100564.38;5051544;28;20403;-71
2022/07/15 22:28:15;;;;;;;2.30;2.20;;;;;;;29.26;41.28;100566.78;5039064;28;20060;-71
2022/07/15 22:30:43;;;;;;;3.20;2.00;;;;;;;29.30;40.75;100561.94;5034396;28;20071;-71
2022/07/15 22:33:11;;;;;;;2.47;2.17;;;;;;;29.31;40.66;100574.00;5029820;28;20056;-71
2022/07/15 22:35:39;;;;;;;2.42;2.22;;;;;;;29.30;40.55;100570.41;5054303;28;20055;-72
2022/07/15 22:38:07;;;;;;;2.40;2.28;;;;;;;29.32;40.64;100572.81;5035935;28;20060;-71
2022/07/15 22:40:35;;;;;;;2.22;2.13;;;;;;;29.21;40.90;100568.03;5036883;28;20498;-71
2022/07/15 22:43:05;;;;;;;2.42;2.20;;;;;;;29.23;40.71;100568.41;5035311;28;20399;-72
2022/07/15 22:45:34;;;;;;;3.28;2.03;;;;;;;29.31;40.19;100574.00;5033581;28;20063;-72
2022/07/15 22:48:02;;;;;;;5.05;2.53;;;;;;;29.24;40.83;100575.66;5036422;28;20045;-72
2022/07/15 22:50:31;;;;;;;2.03;1.88;;;;;;;29.29;40.69;100565.16;5034981;28;20048;-72
2022/07/15 22:52:59;;;;;;;2.55;2.35;;;;;;;29.27;41.39;100574.03;5019747;28;20053;-72
2022/07/15 22:55:27;;;;;;;3.20;2.17;;;;;;;29.25;40.56;100565.19;5071916;28;20052;-72
2022/07/15 22:57:55;;;;;;;2.28;2.08;;;;;;;29.22;40.22;100569.63;5055560;28;20049;-71
2022/07/15 23:00:24;;;;;;;3.75;2.35;;;;;;;29.23;40.13;100567.63;5055344;28;20066;-71
2022/07/15 23:02:52;;;;;;;2.03;1.92;;;;;;;29.22;40.21;100571.63;5055528;28;20087;-72
2022/07/15 23:05:20;;;;;;;2.20;1.80;;;;;;;29.24;39.95;100574.88;5038849;28;20044;-72
2022/07/15 23:07:49;;;;;;;2.10;1.95;;;;;;;29.25;40.01;100565.19;5055296;28;20087;-72
2022/07/15 23:10:17;;;;;;;2.38;2.28;;;;;;;29.25;39.73;100570.81;5053976;28;20487;-70
2022/07/15 23:12:46;;;;;;;2.83;2.40;;;;;;;29.26;39.64;100572.44;5054995;28;20052;-73
2022/07/15 23:15:14;;;;;;;4.70;1.90;;;;;;;29.24;39.19;100581.28;5053863;28;20403;-73
2022/07/15 23:17:42;;;;;;;3.55;2.10;;;;;;;29.26;38.87;100571.66;5055122;28;20048;-72
2022/07/15 23:20:11;;;;;;;2.00;1.90;;;;;;;29.21;39.13;100581.31;5054949;28;20049;-70
2022/07/15 23:22:39;;;;;;;3.53;2.20;;;;;;;29.23;39.08;100585.31;5055090;28;20045;-70
2022/07/15 23:25:07;;;;;;;2.38;2.17;;;;;;;29.21;39.04;100570.84;5052457;28;20056;-72
2022/07/15 23:27:36;;;;;;;5.65;2.28;;;;;;;29.23;39.31;100579.69;5026897;28;20415;-71
2022/07/15 23:30:06;;;;;;;1.88;1.77;;;;;;;29.22;38.95;100586.53;5038305;28;20048;-71
2022/07/15 23:32:34;;;;;;;3.28;2.22;;;;;;;29.22;39.43;100580.91;5072314;28;20438;-71
2022/07/15 23:35:02;;;;;;;1.95;1.85;;;;;;;29.19;39.59;100593.00;5071054;28;20123;-71
2022/07/15 23:37:30;;;;;;;3.17;2.08;;;;;;;29.16;39.45;100571.28;5068317;28;20069;-71
2022/07/15 23:39:58;;;;;;;2.20;2.00;;;;;;;29.15;40.37;100582.94;5067220;28;20063;-71
2022/07/15 23:42:26;;;;;;;2.30;2.20;;;;;;;29.11;39.66;100597.03;5070439;28;20055;-71
2022/07/15 23:44:56;;;;;;;2.97;2.20;;;;;;;29.06;39.80;100586.19;5060515;28;20047;-71
2022/07/15 23:47:25;;;;;;;2.33;2.13;;;;;;;29.05;40.17;100590.22;5070510;28;20514;-71
2022/07/15 23:49:54;;;;;;;3.38;2.25;;;;;;;28.97;40.19;100581.00;5071928;28;20391;-71
2022/07/15 23:52:22;;;;;;;2.70;2.50;;;;;;;28.96;40.56;100588.66;5071733;28;20496;-71
2022/07/15 23:54:50;;;;;;;2.45;2.25;;;;;;;28.93;40.69;100586.66;5070301;28;20033;-71
2022/07/15 23:57:18;;;;;;;2.70;2.50;;;;;;;28.99;40.84;100594.69;5071839;28;20040;-71
